Time;durP1;ratioP1;P1;durP2;ratioP2;P2;SDS_P1;SDS_P2;PMS_P1;PMS_P2;Temp;Humidity;BMP_temperature;BMP_pressure;BME280_temperature;BME280_humidity;BME280_pressure;Samples;Min_cycle;Max_cycle;Signal;HPM_P1;HPM_P2
2021/03/25 00:01:10;;;;;;;;;;;7.90;90.40;;;;;;5054789;28;19991;-86
2021/03/25 00:03:39;;;;;;;;;;;7.90;90.60;;;;;;5073117;28;20003;-86
2021/03/25 00:06:05;;;;;;;;;;;7.90;90.60;;;;;;5073247;28;19947;-86
2021/03/25 00:08:31;;;;;;;;;;;7.90;90.50;;;;;;5073074;28;20356;-86
2021/03/25 00:10:56;;;;;;;;;;;7.80;90.60;;;;;;5072508;28;19919;-86
2021/03/25 00:13:22;;;;;;;;;;;7.70;91.10;;;;;;5055088;28;20356;-85
2021/03/25 00:15:48;;;;;;;;;;;7.70;90.90;;;;;;5073095;28;19961;-86
2021/03/25 00:18:14;;;;;;;;;;;7.70;90.90;;;;;;5072857;28;19919;-86
2021/03/25 00:20:39;;;;;;;;;;;7.70;91.00;;;;;;5054448;28;19908;-86
2021/03/25 00:23:05;;;;;;;;;;;7.70;91.00;;;;;;5072890;28;19904;-86
2021/03/25 00:25:32;;;;;;;;;;;7.70;90.90;;;;;;5055109;28;20273;-86
2021/03/25 00:27:58;;;;;;;;;;;7.70;91.10;;;;;;5072791;28;19908;-86
2021/03/25 00:30:25;;;;;;;;;;;7.70;90.90;;;;;;5072305;28;19939;-86
2021/03/25 00:32:50;;;;;;;;;;;7.70;90.90;;;;;;5054841;28;19946;-85
2021/03/25 00:35:16;;;;;;;;;;;7.60;90.90;;;;;;5072950;28;19967;-86
2021/03/25 00:37:42;;;;;;;;;;;7.50;91.00;;;;;;5072666;28;19912;-86
2021/03/25 00:40:08;;;;;;;;;;;7.50;91.10;;;;;;5072280;28;20364;-86
2021/03/25 00:42:33;;;;;;;;;;;7.40;91.30;;;;;;5054637;28;20396;-86
2021/03/25 00:44:59;;;;;;;;;;;7.30;91.60;;;;;;5054706;28;19904;-86
2021/03/25 00:47:25;;;;;;;;;;;7.30;91.50;;;;;;5072644;28;19905;-85
2021/03/25 00:49:50;;;;;;;;;;;7.30;91.50;;;;;;5071923;28;19919;-86
2021/03/25 00:52:16;;;;;;;;;;;7.30;91.60;;;;;;5054542;28;20345;-86
2021/03/25 00:54:41;;;;;;;;;;;7.30;91.50;;;;;;5072386;28;19919;-86
2021/03/25 00:57:07;;;;;;;;;;;7.40;91.30;;;;;;5054764;28;19942;-86
2021/03/25 00:59:32;;;;;;;;;;;7.30;91.30;;;;;;5072022;28;19931;-87
2021/03/25 01:01:59;;;;;;;;;;;7.40;91.30;;;;;;5054508;28;19905;-86
2021/03/25 01:04:24;;;;;;;;;;;7.30;91.30;;;;;;5072595;28;19904;-86
2021/03/25 01:06:49;;;;;;;;;;;7.30;91.50;;;;;;5072497;28;20027;-86
2021/03/25 01:09:20;;;;;;;;;;;7.30;91.40;;;;;;5071784;28;20459;-85
2021/03/25 01:11:46;;;;;;;;;;;7.30;91.60;;;;;;5072447;28;19905;-87
2021/03/25 01:14:11;;;;;;;;;;;7.30;91.60;;;;;;5072586;28;19946;-85
2021/03/25 01:16:39;;;;;;;;;;;7.20;91.60;;;;;;5054434;28;19913;-87
2021/03/25 01:19:07;;;;;;;;;;;7.20;91.70;;;;;;5054238;28;20304;-86
2021/03/25 01:21:32;;;;;;;;;;;7.20;91.70;;;;;;5054431;28;19911;-86
2021/03/25 01:23:58;;;;;;;;;;;7.10;91.90;;;;;;5054860;28;19904;-86
2021/03/25 01:26:23;;;;;;;;;;;7.20;92.00;;;;;;5054475;28;19943;-86
2021/03/25 01:28:49;;;;;;;;;;;7.20;91.90;;;;;;5054169;28;19916;-86
2021/03/25 01:31:14;;;;;;;;;;;7.20;91.90;;;;;;5072111;28;19908;-86
2021/03/25 01:33:40;;;;;;;;;;;7.20;91.90;;;;;;5072044;28;19916;-86
2021/03/25 01:36:05;;;;;;;;;;;7.20;91.90;;;;;;5072300;28;19908;-86
2021/03/25 01:38:31;;;;;;;;;;;7.20;91.80;;;;;;5072100;28;19905;-86
2021/03/25 01:40:58;;;;;;;;;;;7.20;91.80;;;;;;5053681;28;20357;-86
2021/03/25 01:43:29;;;;;;;;;;;7.20;91.70;;;;;;5072078;28;19928;-86
2021/03/25 01:45:55;;;;;;;;;;;7.30;91.80;;;;;;5072124;28;19904;-86
2021/03/25 01:48:23;;;;;;;;;;;7.30;91.60;;;;;;5055358;28;19904;-86
2021/03/25 01:50:49;;;;;;;;;;;7.30;91.70;;;;;;5075144;28;20411;-86
2021/03/25 01:53:18;;;;;;;;;;;7.30;91.80;;;;;;5057480;28;19904;-86
2021/03/25 01:56:07;;;;;;;;;;;7.40;91.70;;;;;;5057506;28;19912;-86
2021/03/25 01:58:39;;;;;;;;;;;7.50;91.60;;;;;;5075630;28;20361;-86
2021/03/25 02:01:06;;;;;;;;;;;7.60;91.50;;;;;;5056955;28;20430;-86
2021/03/25 02:03:41;;;;;;;;;;;7.50;91.60;;;;;;5057615;28;20250;-86
2021/03/25 02:06:13;;;;;;;;;;;7.60;91.60;;;;;;5075487;28;19904;-86
2021/03/25 02:08:41;;;;;;;;;;;7.60;91.50;;;;;;5057381;28;19926;-86
2021/03/25 02:11:10;;;;;;;;;;;7.50;91.60;;;;;;5074910;28;19904;-86
2021/03/25 02:13:54;;;;;;;;;;;7.60;91.60;;;;;;5075327;28;19912;-86
2021/03/25 02:16:24;;;;;;;;;;;7.60;91.70;;;;;;5075387;28;19906;-86
2021/03/25 02:18:58;;;;;;;;;;;7.60;91.60;;;;;;5056904;28;20357;-86
2021/03/25 02:21:27;;;;;;;;;;;7.60;91.50;;;;;;5057293;28;19904;-87
2021/03/25 02:24:00;;;;;;;;;;;7.70;91.40;;;;;;5075177;28;19908;-86
2021/03/25 02:26:34;;;;;;;;;;;7.70;91.40;;;;;;5073917;28;19904;-86
2021/03/25 02:29:08;;;;;;;;;;;7.70;91.50;;;;;;5074498;28;19911;-86
2021/03/25 02:31:45;;;;;;;;;;;7.70;91.50;;;;;;5057354;28;19911;-86
2021/03/25 02:34:14;;;;;;;;;;;7.70;91.40;;;;;;5073641;28;19908;-87
2021/03/25 02:37:00;;;;;;;;;;;7.70;91.30;;;;;;5074947;28;20327;-86
2021/03/25 02:39:30;;;;;;;;;;;7.70;91.50;;;;;;5056464;28;19904;-86
2021/03/25 02:41:58;;;;;;;;;;;7.70;91.60;;;;;;5056662;28;20266;-86
2021/03/25 02:44:27;;;;;;;;;;;7.70;91.70;;;;;;5074766;28;20360;-86
2021/03/25 02:46:55;;;;;;;;;;;7.60;91.70;;;;;;5056752;28;19904;-86
2021/03/25 02:49:23;;;;;;;;;;;7.70;91.80;;;;;;5074238;28;19904;-86
2021/03/25 02:51:53;;;;;;;;;;;7.60;91.90;;;;;;5056811;28;19927;-86
2021/03/25 02:54:18;;;;;;;;;;;7.70;91.70;;;;;;5074326;28;19912;-86
2021/03/25 02:56:50;;;;;;;;;;;7.60;91.50;;;;;;5074532;28;19959;-87
2021/03/25 02:59:16;;;;;;;;;;;7.60;91.50;;;;;;5055215;28;19905;-86
2021/03/25 03:01:43;;;;;;;;;;;7.60;91.50;;;;;;5056097;28;19919;-86
2021/03/25 03:04:16;;;;;;;;;;;7.70;91.60;;;;;;5074301;28;19991;-87
2021/03/25 03:06:44;;;;;;;;;;;7.70;91.60;;;;;;5074398;28;19994;-85
2021/03/25 03:09:13;;;;;;;;;;;7.70;91.70;;;;;;5055836;28;20002;-85
2021/03/25 03:11:44;;;;;;;;;;;7.80;91.70;;;;;;5074111;28;19908;-85
2021/03/25 03:14:12;;;;;;;;;;;7.80;91.70;;;;;;5074021;28;20021;-86
2021/03/25 03:16:44;;;;;;;;;;;7.70;91.70;;;;;;5073650;28;19909;-85
2021/03/25 03:19:21;;;;;;;;;;;7.80;91.60;;;;;;5072249;28;20343;-86
2021/03/25 03:21:49;;;;;;;;;;;7.80;91.70;;;;;;5073836;28;19904;-86
2021/03/25 03:24:15;;;;;;;;;;;7.90;91.50;;;;;;5074048;28;20360;-86
2021/03/25 03:27:07;;;;;;;;;;;7.90;91.50;;;;;;5073952;28;19912;-86
2021/03/25 03:29:33;;;;;;;;;;;7.80;91.60;;;;;;5051359;28;19986;-86
2021/03/25 03:32:05;;;;;;;;;;;7.80;91.70;;;;;;5073642;28;19911;-86
2021/03/25 03:34:33;;;;;;;;;;;7.80;91.80;;;;;;5073608;28;19915;-86
2021/03/25 03:37:02;;;;;;;;;;;7.80;91.90;;;;;;5055834;28;20412;-86
2021/03/25 03:39:28;;;;;;;;;;;7.80;92.00;;;;;;5055124;28;19915;-86
2021/03/25 03:41:58;;;;;;;;;;;7.70;92.10;;;;;;5073537;28;19904;-86
2021/03/25 03:44:26;;;;;;;;;;;7.70;92.10;;;;;;5073540;28;20265;-86
2021/03/25 03:46:53;;;;;;;;;;;7.70;92.20;;;;;;5073794;28;20303;-87
2021/03/25 03:49:21;;;;;;;;;;;7.70;92.20;;;;;;5055018;28;19904;-87
2021/03/25 03:51:48;;;;;;;;;;;7.70;92.10;;;;;;5072041;28;19948;-86
2021/03/25 03:54:14;;;;;;;;;;;7.70;92.20;;;;;;5073159;28;19913;-86
2021/03/25 03:56:52;;;;;;;;;;;7.70;92.40;;;;;;5055562;28;19908;-86
2021/03/25 03:59:36;;;;;;;;;;;7.80;92.20;;;;;;5054804;28;19908;-86
2021/03/25 04:02:07;;;;;;;;;;;7.70;92.30;;;;;;5055218;28;19911;-86
2021/03/25 04:04:38;;;;;;;;;;;7.70;92.40;;;;;;5073351;28;19911;-87
2021/03/25 04:07:05;;;;;;;;;;;7.70;92.20;;;;;;5073432;28;19904;-86
2021/03/25 04:09:34;;;;;;;;;;;7.80;92.20;;;;;;5072707;28;19912;-86
2021/03/25 04:12:13;;;;;;;;;;;7.80;92.30;;;;;;5055264;28;19955;-86
2021/03/25 04:14:43;;;;;;;;;;;7.80;92.30;;;;;;5055206;28;19908;-86
2021/03/25 04:17:10;;;;;;;;;;;7.80;92.40;;;;;;5055274;28;19904;-86
2021/03/25 04:19:43;;;;;;;;;;;7.80;92.30;;;;;;5054680;28;19920;-86
2021/03/25 04:22:14;;;;;;;;;;;7.80;92.30;;;;;;5072997;28;19927;-86
2021/03/25 04:24:43;;;;;;;;;;;7.90;92.00;;;;;;5055483;28;20303;-85
2021/03/25 04:27:17;;;;;;;;;;;7.80;92.20;;;;;;5073136;28;20292;-85
2021/03/25 04:29:50;;;;;;;;;;;7.80;92.30;;;;;;5054462;28;20273;-86
2021/03/25 04:32:16;;;;;;;;;;;7.80;92.50;;;;;;5072810;28;19910;-86
2021/03/25 04:34:41;;;;;;;;;;;7.70;92.50;;;;;;5054722;28;20003;-86
2021/03/25 04:37:07;;;;;;;;;;;7.70;92.60;;;;;;5054881;28;20307;-86
2021/03/25 04:39:34;;;;;;;;;;;7.70;92.60;;;;;;5072165;28;19933;-86
2021/03/25 04:42:00;;;;;;;;;;;7.80;92.70;;;;;;5054621;28;20359;-86
2021/03/25 04:44:32;;;;;;;;;;;7.70;92.70;;;;;;5072612;28;20003;-86
2021/03/25 04:47:04;;;;;;;;;;;7.70;92.60;;;;;;5054794;28;19908;-86
2021/03/25 04:49:41;;;;;;;;;;;7.80;92.60;;;;;;5072292;28;19908;-86
2021/03/25 04:52:09;;;;;;;;;;;7.70;92.50;;;;;;5072645;28;19904;-85
2021/03/25 04:54:36;;;;;;;;;;;7.70;92.60;;;;;;5054471;28;19912;-86
2021/03/25 04:57:25;;;;;;;;;;;7.60;92.70;;;;;;5054591;28;19908;-86
2021/03/25 04:59:51;;;;;;;;;;;7.60;92.80;;;;;;5043347;28;19905;-86
2021/03/25 05:02:17;;;;;;;;;;;7.60;92.80;;;;;;5054585;28;19905;-86
2021/03/25 05:04:47;;;;;;;;;;;7.80;92.70;;;;;;5054529;28;19941;-86
2021/03/25 05:07:16;;;;;;;;;;;7.80;92.40;;;;;;5054439;28;19973;-86
2021/03/25 05:09:42;;;;;;;;;;;7.80;92.50;;;;;;5071864;28;19904;-86
2021/03/25 05:12:12;;;;;;;;;;;7.80;92.40;;;;;;5054187;28;20428;-86
2021/03/25 05:14:37;;;;;;;;;;;7.80;92.50;;;;;;5072313;28;19912;-86
2021/03/25 05:17:03;;;;;;;;;;;7.90;92.40;;;;;;5054437;28;19919;-86
2021/03/25 05:19:38;;;;;;;;;;;7.90;92.40;;;;;;5071814;28;19911;-86
2021/03/25 05:22:12;;;;;;;;;;;8.00;92.30;;;;;;5072209;28;20280;-86
2021/03/25 05:24:41;;;;;;;;;;;8.00;92.30;;;;;;5057880;28;20354;-85
2021/03/25 05:39:41;;;;;;;;;;;7.90;92.60;;;;;;4993971;28;20009;-86
2021/03/25 05:42:24;;;;;;;;;;;8.00;92.60;;;;;;5047577;28;19904;-86
2021/03/25 05:44:50;;;;;;;;;;;7.90;92.70;;;;;;5058047;28;19947;-86
2021/03/25 05:47:15;;;;;;;;;;;7.90;92.80;;;;;;5075886;28;19904;-86
2021/03/25 05:49:41;;;;;;;;;;;7.70;92.80;;;;;;5075172;28;20011;-86
2021/03/25 05:52:15;;;;;;;;;;;7.80;92.90;;;;;;5075745;28;19908;-86
2021/03/25 06:04:24;;;;;;;;;;;7.90;92.50;;;;;;5075674;28;19923;-86
2021/03/25 06:07:02;;;;;;;;;;;8.00;92.50;;;;;;5058844;28;19912;-86
2021/03/25 06:09:28;;;;;;;;;;;8.00;92.60;;;;;;5056931;28;19908;-86
2021/03/25 06:12:04;;;;;;;;;;;8.10;92.50;;;;;;5075209;28;20391;-85
2021/03/25 06:14:43;;;;;;;;;;;8.10;92.30;;;;;;5075826;28;19916;-86
2021/03/25 06:17:08;;;;;;;;;;;8.10;92.30;;;;;;5075409;28;19927;-85
2021/03/25 06:19:57;;;;;;;;;;;8.20;92.40;;;;;;5074658;28;19905;-86
2021/03/25 06:22:32;;;;;;;;;;;8.20;92.20;;;;;;5020380;28;20353;-85
2021/03/25 06:25:33;;;;;;;;;;;8.20;92.10;;;;;;5057238;28;19908;-86
2021/03/25 06:28:04;;;;;;;;;;;8.20;92.10;;;;;;4977271;28;20260;-86
2021/03/25 06:30:32;;;;;;;;;;;8.30;92.20;;;;;;5043010;28;20278;-86
2021/03/25 06:33:00;;;;;;;;;;;8.30;92.20;;;;;;5074980;28;19912;-86
2021/03/25 06:35:32;;;;;;;;;;;8.30;92.30;;;;;;5056682;28;20249;-86
2021/03/25 06:38:02;;;;;;;;;;;8.30;92.20;;;;;;5074999;28;19908;-86
2021/03/25 06:40:34;;;;;;;;;;;8.30;92.20;;;;;;5074276;28;19911;-85
2021/03/25 06:43:09;;;;;;;;;;;8.30;92.20;;;;;;5056770;28;20299;-84
2021/03/25 06:45:35;;;;;;;;;;;8.30;92.30;;;;;;5074739;28;20348;-86
2021/03/25 06:48:18;;;;;;;;;;;8.40;92.40;;;;;;5056744;28;19905;-86
2021/03/25 06:50:47;;;;;;;;;;;8.40;92.30;;;;;;5074194;28;19904;-86
2021/03/25 06:53:15;;;;;;;;;;;8.50;92.10;;;;;;5074519;28;20304;-86
2021/03/25 06:55:41;;;;;;;;;;;8.50;92.10;;;;;;5056431;28;19909;-86
2021/03/25 06:58:11;;;;;;;;;;;8.50;92.20;;;;;;5074668;28;20376;-87
2021/03/25 07:00:39;;;;;;;;;;;8.50;92.20;;;;;;5056075;28;19904;-86
2021/03/25 07:03:07;;;;;;;;;;;8.50;92.40;;;;;;5074543;28;20411;-86
2021/03/25 07:05:33;;;;;;;;;;;8.50;92.40;;;;;;5074480;28;19904;-86
2021/03/25 07:08:05;;;;;;;;;;;8.50;92.30;;;;;;5074389;28;19916;-86
2021/03/25 07:10:31;;;;;;;;;;;8.60;92.40;;;;;;5055894;28;19923;-86
2021/03/25 07:13:03;;;;;;;;;;;8.70;92.30;;;;;;5056252;28;19905;-86
2021/03/25 07:15:29;;;;;;;;;;;8.70;92.30;;;;;;5056183;28;19915;-86
2021/03/25 07:17:55;;;;;;;;;;;8.80;92.30;;;;;;5074170;28;19999;-86
2021/03/25 07:20:30;;;;;;;;;;;8.90;92.30;;;;;;5055625;28;19944;-85
2021/03/25 07:23:01;;;;;;;;;;;8.90;92.30;;;;;;5056771;28;19958;-86
2021/03/25 07:25:28;;;;;;;;;;;8.90;92.20;;;;;;5056642;28;19904;-87
2021/03/25 07:27:54;;;;;;;;;;;9.00;92.10;;;;;;5074523;28;19923;-85
2021/03/25 07:30:20;;;;;;;;;;;9.00;92.20;;;;;;5074450;28;19905;-85
2021/03/25 07:32:57;;;;;;;;;;;9.10;91.90;;;;;;5056814;28;19905;-86
2021/03/25 07:35:28;;;;;;;;;;;9.10;91.80;;;;;;5056709;28;20511;-85
2021/03/25 07:37:54;;;;;;;;;;;9.10;91.90;;;;;;5056990;28;19904;-86
2021/03/25 07:40:26;;;;;;;;;;;9.20;92.00;;;;;;5056687;28;20018;-85
2021/03/25 07:42:51;;;;;;;;;;;9.20;92.00;;;;;;5074591;28;20284;-85
2021/03/25 07:45:20;;;;;;;;;;;9.20;92.10;;;;;;5055998;28;19904;-86
2021/03/25 07:47:46;;;;;;;;;;;9.20;92.00;;;;;;5073902;28;19991;-85
2021/03/25 07:50:17;;;;;;;;;;;9.30;92.00;;;;;;5056558;28;19954;-85
2021/03/25 07:52:43;;;;;;;;;;;9.30;91.80;;;;;;5055873;28;19946;-86
2021/03/25 07:55:17;;;;;;;;;;;9.30;91.80;;;;;;5056391;28;20308;-86
2021/03/25 07:57:44;;;;;;;;;;;9.30;91.70;;;;;;5056149;28;19904;-87
2021/03/25 08:00:15;;;;;;;;;;;9.40;91.70;;;;;;5056239;28;19912;-85
2021/03/25 08:02:41;;;;;;;;;;;9.40;92.00;;;;;;5074003;28;19905;-85
2021/03/25 08:05:16;;;;;;;;;;;9.50;91.60;;;;;;5056130;28;19904;-85
2021/03/25 08:07:42;;;;;;;;;;;9.50;91.60;;;;;;5074072;28;20309;-86
2021/03/25 08:10:20;;;;;;;;;;;9.50;91.60;;;;;;5073638;28;19954;-86
2021/03/25 08:12:46;;;;;;;;;;;9.50;91.50;;;;;;5055846;28;20095;-86
2021/03/25 08:15:30;;;;;;;;;;;9.60;91.50;;;;;;5073179;28;19908;-86
2021/03/25 08:17:59;;;;;;;;;;;9.60;91.60;;;;;;5073324;28;19927;-86
2021/03/25 08:20:43;;;;;;;;;;;9.50;91.50;;;;;;5073974;28;19940;-85
2021/03/25 08:23:15;;;;;;;;;;;9.60;91.40;;;;;;5055982;28;19947;-85
2021/03/25 08:25:40;;;;;;;;;;;9.60;91.40;;;;;;5073866;28;19938;-85
2021/03/25 08:28:13;;;;;;;;;;;9.60;91.70;;;;;;5074072;28;19908;-86
2021/03/25 08:30:38;;;;;;;;;;;9.70;91.40;;;;;;5074190;28;19994;-86
2021/03/25 08:33:22;;;;;;;;;;;9.70;91.30;;;;;;5074938;28;19931;-86
2021/03/25 08:35:50;;;;;;;;;;;9.70;91.30;;;;;;5074969;28;19970;-86
2021/03/25 08:38:38;;;;;;;;;;;9.70;91.10;;;;;;5056695;28;19904;-86
2021/03/25 08:41:11;;;;;;;;;;;9.70;91.20;;;;;;5073998;28;19905;-86
2021/03/25 08:43:50;;;;;;;;;;;9.80;91.10;;;;;;5075692;28;19904;-86
2021/03/25 08:46:19;;;;;;;;;;;9.80;91.10;;;;;;5056966;28;19912;-86
2021/03/25 08:48:49;;;;;;;;;;;9.80;91.30;;;;;;5075096;28;19911;-86
2021/03/25 08:51:25;;;;;;;;;;;9.90;91.00;;;;;;5056450;28;20346;-87
2021/03/25 08:53:57;;;;;;;;;;;9.90;91.00;;;;;;5056487;28;19912;-87
2021/03/25 08:56:32;;;;;;;;;;;9.90;91.00;;;;;;5057210;28;19955;-87
2021/03/25 08:58:59;;;;;;;;;;;10.00;91.00;;;;;;5077922;28;19904;-87
2021/03/25 09:01:34;;;;;;;;;;;10.00;90.80;;;;;;5078728;28;19943;-86
2021/03/25 09:04:02;;;;;;;;;;;10.00;90.60;;;;;;5078317;28;19927;-87
2021/03/25 09:06:32;;;;;;;;;;;10.00;90.50;;;;;;5078778;28;19916;-87
2021/03/25 09:09:16;;;;;;;;;;;10.10;90.50;;;;;;5059638;28;20304;-87
2021/03/25 09:11:42;;;;;;;;;;;10.10;90.50;;;;;;5078889;28;19904;-86
2021/03/25 09:14:11;;;;;;;;;;;10.10;90.40;;;;;;5078347;28;20309;-86
2021/03/25 09:16:36;;;;;;;;;;;10.10;90.50;;;;;;5078681;28;19987;-86
2021/03/25 09:19:04;;;;;;;;;;;10.10;90.50;;;;;;5077786;28;19959;-87
2021/03/25 09:21:30;;;;;;;;;;;10.10;90.50;;;;;;5060304;28;19943;-86
2021/03/25 09:23:59;;;;;;;;;;;10.10;89.80;;;;;;5078188;28;19905;-86
2021/03/25 09:26:24;;;;;;;;;;;10.10;90.20;;;;;;5060108;28;19970;-86
2021/03/25 09:28:52;;;;;;;;;;;10.10;90.00;;;;;;5077699;28;20403;-87
2021/03/25 09:31:19;;;;;;;;;;;10.10;90.10;;;;;;5060191;28;19927;-88
2021/03/25 09:33:52;;;;;;;;;;;10.10;90.10;;;;;;5061083;28;20307;-86
2021/03/25 09:36:18;;;;;;;;;;;10.10;90.00;;;;;;5078721;28;19962;-87
2021/03/25 09:38:45;;;;;;;;;;;10.10;89.90;;;;;;5060505;28;19909;-87
2021/03/25 09:41:31;;;;;;;;;;;10.00;90.40;;;;;;5059380;28;19905;-86
2021/03/25 09:44:05;;;;;;;;;;;10.10;90.40;;;;;;5045992;28;19904;-87
2021/03/25 09:46:38;;;;;;;;;;;10.00;90.60;;;;;;5059825;28;20312;-87
2021/03/25 09:49:15;;;;;;;;;;;10.10;90.60;;;;;;5076761;28;19905;-86
2021/03/25 09:51:41;;;;;;;;;;;10.10;90.80;;;;;;5077502;28;19927;-86
2021/03/25 09:54:27;;;;;;;;;;;10.20;90.80;;;;;;5077235;28;19927;-87
2021/03/25 09:57:11;;;;;;;;;;;10.20;91.00;;;;;;5076601;28;20002;-87
2021/03/25 09:59:48;;;;;;;;;;;10.30;90.90;;;;;;5077592;28;19910;-86
2021/03/25 10:02:34;;;;;;;;;;;10.30;90.90;;;;;;5059745;28;19947;-86
2021/03/25 10:05:33;;;;;;;;;;;10.30;90.70;;;;;;5077080;28;20307;-85
2021/03/25 10:08:17;;;;;;;;;;;10.20;90.90;;;;;;5032653;28;19912;-86
2021/03/25 10:10:42;;;;;;;;;;;10.30;91.00;;;;;;5057978;28;20007;-87
2021/03/25 10:13:08;;;;;;;;;;;10.30;91.20;;;;;;5076801;28;20006;-86
2021/03/25 10:15:34;;;;;;;;;;;10.30;91.00;;;;;;5076693;28;19936;-86
2021/03/25 10:18:01;;;;;;;;;;;10.40;91.00;;;;;;5077340;28;19904;-87
2021/03/25 10:20:45;;;;;;;;;;;10.40;90.90;;;;;;5076888;28;19936;-86
2021/03/25 10:23:14;;;;;;;;;;;10.40;91.00;;;;;;5076278;28;19905;-87
2021/03/25 10:25:39;;;;;;;;;;;10.50;91.00;;;;;;5058489;28;19908;-86
2021/03/25 10:28:09;;;;;;;;;;;10.50;91.00;;;;;;5058875;28;19923;-87
2021/03/25 10:30:36;;;;;;;;;;;10.60;90.80;;;;;;5058468;28;19911;-86
2021/03/25 10:33:07;;;;;;;;;;;10.60;90.60;;;;;;5077006;28;19904;-86
2021/03/25 10:35:34;;;;;;;;;;;10.60;90.30;;;;;;5058626;28;19999;-87
2021/03/25 10:38:05;;;;;;;;;;;10.70;89.70;;;;;;5076897;28;20006;-87
2021/03/25 10:40:39;;;;;;;;;;;10.70;90.10;;;;;;5058487;28;19909;-87
2021/03/25 10:43:05;;;;;;;;;;;10.70;89.50;;;;;;5058533;28;19911;-86
2021/03/25 10:45:34;;;;;;;;;;;10.80;89.60;;;;;;5058678;28;19904;-87
2021/03/25 10:48:02;;;;;;;;;;;10.80;89.70;;;;;;5077028;28;20316;-87
2021/03/25 10:50:31;;;;;;;;;;;10.80;89.90;;;;;;5076251;28;19909;-86
2021/03/25 10:53:00;;;;;;;;;;;10.90;89.60;;;;;;5077052;28;19905;-87
2021/03/25 10:55:42;;;;;;;;;;;10.90;88.80;;;;;;5058574;28;19965;-86
2021/03/25 10:58:17;;;;;;;;;;;11.00;89.20;;;;;;5076497;28;19908;-87
2021/03/25 11:00:43;;;;;;;;;;;11.00;89.00;;;;;;5058164;28;19904;-86
2021/03/25 11:03:28;;;;;;;;;;;11.10;88.30;;;;;;5076541;28;20004;-86
2021/03/25 11:05:56;;;;;;;;;;;11.20;88.20;;;;;;5058983;28;19991;-87
2021/03/25 11:08:30;;;;;;;;;;;11.30;86.10;;;;;;5059148;28;19935;-86
2021/03/25 11:10:57;;;;;;;;;;;11.40;84.20;;;;;;5058013;28;20007;-87
2021/03/25 11:13:25;;;;;;;;;;;11.40;83.60;;;;;;5075841;28;19911;-87
2021/03/25 11:15:58;;;;;;;;;;;11.50;83.80;;;;;;5075951;28;19908;-86
2021/03/25 11:18:33;;;;;;;;;;;11.50;83.30;;;;;;5077294;28;19955;-86
2021/03/25 11:20:59;;;;;;;;;;;11.50;83.20;;;;;;5074923;28;19904;-86
2021/03/25 11:23:25;;;;;;;;;;;11.50;83.10;;;;;;5075765;28;19962;-86
2021/03/25 11:25:59;;;;;;;;;;;11.50;82.90;;;;;;5075200;28;19904;-86
2021/03/25 11:28:26;;;;;;;;;;;11.50;82.00;;;;;;5075390;28;19908;-87
2021/03/25 11:30:53;;;;;;;;;;;11.60;83.70;;;;;;5073067;28;19912;-87
2021/03/25 11:33:27;;;;;;;;;;;11.50;84.30;;;;;;5075253;28;19916;-87
2021/03/25 11:35:53;;;;;;;;;;;11.60;84.40;;;;;;5075013;28;19909;-87
2021/03/25 11:38:25;;;;;;;;;;;11.70;84.30;;;;;;5075185;28;19911;-86
2021/03/25 11:40:51;;;;;;;;;;;11.60;83.70;;;;;;5074669;28;19923;-87
2021/03/25 11:43:19;;;;;;;;;;;11.80;82.90;;;;;;5073936;28;20066;-86
2021/03/25 11:45:49;;;;;;;;;;;11.90;82.80;;;;;;5055584;28;19904;-87
2021/03/25 11:48:16;;;;;;;;;;;12.00;82.80;;;;;;5073803;28;19912;-86
2021/03/25 11:50:42;;;;;;;;;;;11.90;83.60;;;;;;5056291;28;19924;-86
2021/03/25 11:53:25;;;;;;;;;;;11.80;82.90;;;;;;5074032;28;19908;-87
2021/03/25 11:55:51;;;;;;;;;;;11.90;84.00;;;;;;5056274;28;19908;-87
2021/03/25 11:58:21;;;;;;;;;;;11.90;83.20;;;;;;5056684;28;19924;-87
2021/03/25 12:01:07;;;;;;;;;;;12.00;83.40;;;;;;5074186;28;19906;-86
2021/03/25 12:03:34;;;;;;;;;;;12.00;83.10;;;;;;5074496;28;19944;-87
2021/03/25 12:06:00;;;;;;;;;;;12.00;82.50;;;;;;5056832;28;20003;-86
2021/03/25 12:08:31;;;;;;;;;;;12.00;82.70;;;;;;5055457;28;19951;-87
2021/03/25 12:11:01;;;;;;;;;;;12.00;83.20;;;;;;5072809;28;19926;-86
2021/03/25 12:13:27;;;;;;;;;;;12.10;83.00;;;;;;5072719;28;19927;-86
2021/03/25 12:15:53;;;;;;;;;;;12.10;82.60;;;;;;5072949;28;19908;-86
2021/03/25 12:18:28;;;;;;;;;;;12.10;83.10;;;;;;5055382;28;19951;-86
2021/03/25 12:20:54;;;;;;;;;;;12.10;83.50;;;;;;5054509;28;19904;-87
2021/03/25 12:23:22;;;;;;;;;;;12.10;83.70;;;;;;5072556;28;19940;-86
2021/03/25 12:25:49;;;;;;;;;;;12.20;83.30;;;;;;5073996;28;19927;-86
2021/03/25 12:28:16;;;;;;;;;;;12.20;83.20;;;;;;5076857;28;20351;-86
2021/03/25 12:30:43;;;;;;;;;;;12.30;82.60;;;;;;5073763;28;20014;-86
2021/03/25 12:33:14;;;;;;;;;;;12.20;82.60;;;;;;5072331;28;19908;-86
2021/03/25 12:35:39;;;;;;;;;;;12.30;80.90;;;;;;5072657;28;20463;-87
2021/03/25 12:38:05;;;;;;;;;;;12.40;81.00;;;;;;5072677;28;19927;-87
2021/03/25 12:40:30;;;;;;;;;;;12.40;81.70;;;;;;5072185;28;19995;-86
2021/03/25 12:42:57;;;;;;;;;;;12.50;81.70;;;;;;5054677;28;19905;-86
2021/03/25 12:45:27;;;;;;;;;;;12.60;81.20;;;;;;5072657;28;19905;-85
2021/03/25 12:47:53;;;;;;;;;;;12.60;81.20;;;;;;5072561;28;19904;-87
2021/03/25 12:50:18;;;;;;;;;;;12.60;81.70;;;;;;5072177;28;20349;-87
2021/03/25 12:52:44;;;;;;;;;;;12.70;78.20;;;;;;5072396;28;19904;-87
2021/03/25 12:55:10;;;;;;;;;;;12.70;79.30;;;;;;5072581;28;19912;-87
2021/03/25 12:57:35;;;;;;;;;;;12.60;80.40;;;;;;5072651;28;19904;-87
2021/03/25 13:00:01;;;;;;;;;;;12.70;81.30;;;;;;5070746;28;19911;-87
2021/03/25 13:02:27;;;;;;;;;;;12.70;81.20;;;;;;5054460;28;19905;-85
2021/03/25 13:04:52;;;;;;;;;;;12.70;81.40;;;;;;5054638;28;20419;-87
2021/03/25 13:07:18;;;;;;;;;;;12.60;80.90;;;;;;5072515;28;19934;-87
2021/03/25 13:09:43;;;;;;;;;;;12.70;80.50;;;;;;5071952;28;19911;-86
2021/03/25 13:12:10;;;;;;;;;;;12.80;79.90;;;;;;5072489;28;20019;-88
2021/03/25 13:14:35;;;;;;;;;;;12.80;79.60;;;;;;5054497;28;20361;-86
2021/03/25 13:17:01;;;;;;;;;;;12.80;79.60;;;;;;5072624;28;19918;-87
2021/03/25 13:19:26;;;;;;;;;;;12.90;78.70;;;;;;5054016;28;19905;-87
2021/03/25 13:21:52;;;;;;;;;;;12.90;79.20;;;;;;5054499;28;19904;-87
2021/03/25 13:24:18;;;;;;;;;;;13.00;79.50;;;;;;5074015;28;20283;-87
2021/03/25 13:26:43;;;;;;;;;;;13.00;78.10;;;;;;5055609;28;20410;-87
2021/03/25 13:29:09;;;;;;;;;;;13.00;77.70;;;;;;5054921;28;19923;-87
2021/03/25 13:31:34;;;;;;;;;;;13.00;77.80;;;;;;5073472;28;20304;-87
2021/03/25 13:33:59;;;;;;;;;;;13.00;78.70;;;;;;5073544;28;19904;-87
2021/03/25 13:36:25;;;;;;;;;;;13.10;77.10;;;;;;5055352;28;19905;-87
2021/03/25 13:38:51;;;;;;;;;;;13.10;76.30;;;;;;5073290;28;19946;-86
2021/03/25 13:41:16;;;;;;;;;;;13.10;76.40;;;;;;5054930;28;19956;-87
2021/03/25 13:43:42;;;;;;;;;;;13.10;76.40;;;;;;5074274;28;19951;-87
2021/03/25 13:46:07;;;;;;;;;;;13.00;76.20;;;;;;5076843;28;19912;-87
2021/03/25 13:48:33;;;;;;;;;;;13.10;76.30;;;;;;5058856;28;19996;-87
2021/03/25 13:51:00;;;;;;;;;;;13.10;76.40;;;;;;5058667;28;19919;-87
2021/03/25 13:53:26;;;;;;;;;;;13.10;76.70;;;;;;5076739;28;19955;-86
2021/03/25 13:55:52;;;;;;;;;;;13.00;77.30;;;;;;5058930;28;19912;-87
2021/03/25 13:58:19;;;;;;;;;;;13.00;77.60;;;;;;5058839;28;20312;-87
2021/03/25 14:00:45;;;;;;;;;;;13.00;78.60;;;;;;5076125;28;19904;-87
2021/03/25 14:03:11;;;;;;;;;;;13.00;79.60;;;;;;5076892;28;20367;-87
2021/03/25 14:05:37;;;;;;;;;;;12.90;79.70;;;;;;5058613;28;19922;-87
2021/03/25 14:08:03;;;;;;;;;;;12.90;80.30;;;;;;5058741;28;19908;-87
2021/03/25 14:10:29;;;;;;;;;;;13.00;80.20;;;;;;5076316;28;19904;-87
2021/03/25 14:12:56;;;;;;;;;;;12.90;80.30;;;;;;5077034;28;19958;-87
2021/03/25 14:15:23;;;;;;;;;;;12.90;80.80;;;;;;5058551;28;19909;-87
2021/03/25 14:17:48;;;;;;;;;;;12.80;80.30;;;;;;5076590;28;19939;-86
2021/03/25 14:20:17;;;;;;;;;;;12.80;80.20;;;;;;5058214;28;20253;-86
2021/03/25 14:22:42;;;;;;;;;;;12.80;80.10;;;;;;5076476;28;20026;-87
2021/03/25 14:25:09;;;;;;;;;;;12.70;80.50;;;;;;5076048;28;19974;-86
2021/03/25 14:27:35;;;;;;;;;;;12.70;81.20;;;;;;5076587;28;19910;-87
2021/03/25 14:30:01;;;;;;;;;;;12.60;81.50;;;;;;5057722;28;20007;-87
2021/03/25 14:32:26;;;;;;;;;;;12.60;82.10;;;;;;5076562;28;20368;-86
2021/03/25 14:34:53;;;;;;;;;;;12.60;82.30;;;;;;5076352;28;19978;-86
2021/03/25 14:37:18;;;;;;;;;;;12.50;82.30;;;;;;5076301;28;19980;-87
2021/03/25 14:39:45;;;;;;;;;;;12.50;83.10;;;;;;5058478;28;19942;-87
2021/03/25 14:42:11;;;;;;;;;;;12.50;83.50;;;;;;5058373;28;19931;-87
2021/03/25 14:44:36;;;;;;;;;;;12.50;83.70;;;;;;5058634;28;19905;-87
2021/03/25 14:47:02;;;;;;;;;;;12.50;83.90;;;;;;5074747;28;19905;-86
2021/03/25 14:49:28;;;;;;;;;;;12.50;84.50;;;;;;5075824;28;19908;-86
2021/03/25 14:51:54;;;;;;;;;;;12.50;85.20;;;;;;5057999;28;20292;-86
2021/03/25 14:54:20;;;;;;;;;;;12.40;85.80;;;;;;5076743;28;20317;-87
2021/03/25 14:56:46;;;;;;;;;;;12.40;86.50;;;;;;5076341;28;19911;-87
2021/03/25 14:59:13;;;;;;;;;;;12.30;87.20;;;;;;5057914;28;19912;-86